createdAt,value
2023-03-08T00:02:45.628Z,-1.67
2023-03-08T00:05:50.680Z,-1.65
2023-03-08T00:08:57.618Z,-1.62
2023-03-08T00:12:01.269Z,-1.59
2023-03-08T00:15:05.449Z,-1.62
2023-03-08T00:18:09.211Z,-1.68
2023-03-08T00:21:17.139Z,-1.71
2023-03-08T00:24:20.805Z,-1.78
2023-03-08T00:27:24.386Z,-1.76
2023-03-08T00:30:28.941Z,-1.80
2023-03-08T00:33:33.464Z,-1.82
2023-03-08T00:36:38.513Z,-1.73
2023-03-08T00:39:42.112Z,-1.81
2023-03-08T00:42:45.997Z,-1.80
2023-03-08T00:45:52.946Z,-1.83
2023-03-08T00:48:57.917Z,-1.84
2023-03-08T00:52:02.828Z,-1.89
2023-03-08T00:55:07.602Z,-1.90
2023-03-08T00:58:11.169Z,-1.90
2023-03-08T01:01:18.380Z,-1.95
2023-03-08T01:04:22.059Z,-1.95
2023-03-08T01:07:28.517Z,-1.96
2023-03-08T01:10:32.403Z,-2.00
2023-03-08T01:13:37.362Z,-2.00
2023-03-08T01:16:42.124Z,-2.03
2023-03-08T01:19:45.935Z,-2.02
2023-03-08T01:22:50.985Z,-2.02
2023-03-08T01:26:01.375Z,-2.07
2023-03-08T01:29:05.171Z,-2.04
2023-03-08T01:32:10.024Z,-2.10
2023-03-08T01:35:14.133Z,-2.10
2023-03-08T01:38:19.058Z,-2.12
2023-03-08T01:41:25.564Z,-2.15
2023-03-08T01:44:30.090Z,-2.10
2023-03-08T01:47:36.178Z,-2.17
2023-03-08T01:50:41.135Z,-2.14
2023-03-08T01:53:47.179Z,-2.19
2023-03-08T01:56:55.075Z,-2.20
2023-03-08T02:00:06.362Z,-2.19
2023-03-08T02:03:13.100Z,-2.18
2023-03-08T02:06:19.289Z,-2.23
2023-03-08T02:09:25.469Z,-2.23
2023-03-08T02:12:29.956Z,-2.30
2023-03-08T02:15:33.730Z,-2.28
2023-03-08T02:18:37.387Z,-2.29
2023-03-08T02:21:41.074Z,-2.33
2023-03-08T02:24:46.153Z,-2.34
2023-03-08T02:27:50.896Z,-2.35
2023-03-08T02:30:55.770Z,-2.44
2023-03-08T02:33:59.409Z,-2.40
2023-03-08T02:37:03.672Z,-2.45
2023-03-08T02:40:12.650Z,-2.45
2023-03-08T02:43:16.281Z,-2.45
2023-03-08T02:46:19.948Z,-2.46
2023-03-08T02:49:23.509Z,-2.49
2023-03-08T02:52:27.363Z,-2.46
2023-03-08T02:55:36.045Z,-2.45
2023-03-08T02:58:39.732Z,-2.36
2023-03-08T03:01:43.364Z,-2.37
2023-03-08T03:04:47.211Z,-2.34
2023-03-08T03:07:50.844Z,-2.21
2023-03-08T03:10:55.916Z,-2.19
2023-03-08T03:14:01.289Z,-2.17
2023-03-08T03:17:04.902Z,-2.03
2023-03-08T03:20:11.199Z,-2.00
2023-03-08T03:23:14.825Z,-1.99
2023-03-08T03:26:23.139Z,-1.92
2023-03-08T03:29:26.748Z,-1.84
2023-03-08T03:32:30.560Z,-1.76
2023-03-08T03:35:34.183Z,-1.79
2023-03-08T03:38:38.336Z,-1.78
2023-03-08T03:41:43.383Z,-1.86
2023-03-08T03:44:47.106Z,-1.84
2023-03-08T03:47:50.768Z,-1.88
2023-03-08T03:50:58.740Z,-1.88
2023-03-08T03:54:02.501Z,-1.88
2023-03-08T03:57:07.916Z,-1.86
2023-03-08T04:00:13.355Z,-1.74
2023-03-08T04:03:17.096Z,-1.81
2023-03-08T04:06:23.292Z,-1.86
2023-03-08T04:09:26.887Z,-1.81
2023-03-08T04:12:31.972Z,-1.90
2023-03-08T04:15:35.627Z,-1.97
2023-03-08T04:18:39.279Z,-1.99
2023-03-08T04:21:42.943Z,-2.01
2023-03-08T04:24:46.688Z,-2.01
2023-03-08T04:27:51.606Z,-2.03
2023-03-08T04:30:55.539Z,-2.09
2023-03-08T04:33:59.324Z,-2.07
2023-03-08T04:37:02.991Z,-2.08
2023-03-08T04:40:09.423Z,-2.11
2023-03-08T04:43:14.488Z,-2.15
2023-03-08T04:46:20.703Z,-2.16
2023-03-08T04:49:25.957Z,-2.11
2023-03-08T04:52:29.583Z,-2.10
2023-03-08T04:55:33.264Z,-2.13
2023-03-08T04:58:39.901Z,-2.16
2023-03-08T05:01:43.970Z,-2.11
2023-03-08T05:04:47.816Z,-2.11
2023-03-08T05:07:51.418Z,-2.15
2023-03-08T05:11:00.786Z,-2.18
2023-03-08T05:14:06.130Z,-2.17
2023-03-08T05:17:10.036Z,-2.20
2023-03-08T05:20:14.417Z,-2.25
2023-03-08T05:23:18.021Z,-2.22
2023-03-08T05:26:21.986Z,-2.14
2023-03-08T05:29:27.060Z,-2.21
2023-03-08T05:32:30.740Z,-2.18
2023-03-08T05:35:34.420Z,-2.21
2023-03-08T05:38:38.226Z,-2.22
2023-03-08T05:41:41.824Z,-2.26
2023-03-08T05:44:46.923Z,-2.23
2023-03-08T05:47:50.600Z,-2.23
2023-03-08T05:50:55.428Z,-2.24
2023-03-08T05:53:59.126Z,-2.17
2023-03-08T05:57:02.797Z,-2.21
2023-03-08T06:00:10.124Z,-2.23
2023-03-08T06:03:14.253Z,-2.19
2023-03-08T06:06:19.527Z,-2.18
2023-03-08T06:09:23.357Z,-2.13
2023-03-08T06:12:27.031Z,-2.14
2023-03-08T06:15:32.154Z,-2.14
2023-03-08T06:18:39.508Z,-2.15
2023-03-08T06:21:43.319Z,-2.14
2023-03-08T06:24:49.749Z,-2.12
2023-03-08T06:27:53.605Z,-2.11
2023-03-08T06:30:59.388Z,-2.02
2023-03-08T06:34:03.715Z,-1.95
2023-03-08T06:37:07.428Z,-1.92
2023-03-08T06:40:13.611Z,-1.90
2023-03-08T06:43:17.162Z,-1.91
2023-03-08T06:46:22.318Z,-1.85
2023-03-08T06:49:26.003Z,-1.77
2023-03-08T06:52:34.967Z,-1.81
2023-03-08T06:55:40.341Z,-1.72
2023-03-08T06:58:44.333Z,-1.68
2023-03-08T07:01:49.348Z,-1.69
2023-03-08T07:04:52.985Z,-1.59
2023-03-08T07:07:56.639Z,-1.53
2023-03-08T07:11:00.977Z,-1.39
2023-03-08T07:14:04.602Z,-1.46
2023-03-08T07:17:09.909Z,-1.49
2023-03-08T07:20:16.167Z,-1.39
2023-03-08T07:23:19.842Z,-1.31
2023-03-08T07:26:23.662Z,-1.28
2023-03-08T07:29:27.465Z,-1.24
2023-03-08T07:32:32.804Z,-1.09
2023-03-08T07:35:38.463Z,-0.91
2023-03-08T07:38:43.630Z,-0.92
2023-03-08T07:41:47.796Z,-0.95
2023-03-08T07:44:51.508Z,-0.85
2023-03-08T07:47:56.896Z,-0.88
2023-03-08T07:51:06.594Z,-0.72
2023-03-08T07:54:12.922Z,-0.63
2023-03-08T07:57:17.457Z,-0.54
2023-03-08T08:00:22.465Z,-0.70
2023-03-08T08:03:27.631Z,-0.61
2023-03-08T08:06:31.763Z,-0.44
2023-03-08T08:09:37.475Z,-0.45
2023-03-08T08:12:41.084Z,-0.26
2023-03-08T08:15:44.762Z,-0.24
2023-03-08T08:18:52.407Z,-0.29
2023-03-08T08:21:55.972Z,-0.32
2023-03-08T08:24:59.568Z,-0.26
2023-03-08T08:28:03.292Z,-0.23
2023-03-08T08:31:09.192Z,-0.19
2023-03-08T08:34:14.182Z,-0.04
2023-03-08T08:37:18.497Z,0.06
2023-03-08T08:40:22.201Z,-0.03
2023-03-08T08:43:25.899Z,-0.11
2023-03-08T08:46:31.094Z,-0.23
2023-03-08T08:49:36.207Z,-0.35
2023-03-08T08:52:41.830Z,-0.10
2023-03-08T08:55:46.166Z,0.17
2023-03-08T08:58:49.966Z,-0.05
2023-03-08T09:01:53.758Z,0.07
2023-03-08T09:04:58.754Z,0.29
2023-03-08T09:08:03.630Z,0.63
2023-03-08T09:11:10.680Z,0.54
2023-03-08T09:14:14.438Z,0.45
2023-03-08T09:17:18.041Z,0.42
2023-03-08T09:20:23.853Z,0.50
2023-03-08T09:23:27.472Z,0.74
2023-03-08T09:26:32.183Z,0.65
2023-03-08T09:29:37.989Z,0.59
2023-03-08T09:32:42.852Z,0.88
2023-03-08T09:35:57.811Z,0.81
2023-03-08T09:39:01.472Z,0.87
2023-03-08T09:42:08.077Z,1.11
2023-03-08T09:45:30.235Z,1.07
2023-03-08T09:48:35.224Z,0.95
2023-03-08T09:51:48.267Z,0.81
2023-03-08T09:54:53.967Z,1.14
2023-03-08T09:58:01.882Z,1.01
2023-03-08T10:01:25.880Z,1.15
2023-03-08T10:05:11.810Z,1.05
2023-03-08T10:08:25.880Z,1.00
2023-03-08T10:11:37.495Z,1.09
2023-03-08T10:14:49.288Z,0.83
2023-03-08T10:17:59.785Z,1.00
2023-03-08T10:21:04.323Z,1.26
2023-03-08T10:24:17.856Z,1.59
2023-03-08T10:27:26.387Z,1.77
2023-03-08T10:30:36.342Z,1.95
2023-03-08T10:33:40.017Z,1.92
2023-03-08T10:36:53.428Z,1.68
2023-03-08T10:40:02.790Z,1.62
2023-03-08T10:43:08.643Z,1.69
2023-03-08T10:46:17.387Z,1.55
2023-03-08T10:49:26.908Z,1.81
2023-03-08T10:52:31.482Z,1.68
2023-03-08T10:55:45.795Z,1.47
2023-03-08T10:58:49.537Z,1.54
2023-03-08T11:01:56.406Z,1.63
2023-03-08T11:05:01.471Z,1.84
2023-03-08T11:08:05.840Z,1.80
2023-03-08T11:11:14.385Z,2.01
2023-03-08T11:14:18.423Z,2.22
2023-03-08T11:17:29.416Z,2.35
2023-03-08T11:20:41.566Z,1.83
2023-03-08T11:23:52.777Z,1.97
2023-03-08T11:27:18.972Z,1.85
2023-03-08T11:30:40.166Z,1.81
2023-03-08T11:34:36.016Z,1.96
2023-03-08T11:37:48.039Z,2.27
2023-03-08T11:41:03.289Z,1.92
2023-03-08T11:44:38.382Z,2.26
2023-03-08T11:48:17.227Z,2.45
2023-03-08T11:51:31.188Z,2.99
2023-03-08T11:54:56.246Z,2.87
2023-03-08T11:58:11.074Z,2.57
2023-03-08T12:01:25.691Z,2.34
2023-03-08T12:04:40.600Z,2.40
2023-03-08T12:07:55.676Z,2.64
2023-03-08T12:11:06.341Z,2.57
2023-03-08T12:14:19.870Z,3.07
2023-03-08T12:17:33.653Z,2.61
2023-03-08T12:20:44.219Z,2.63
2023-03-08T12:24:03.702Z,2.79
2023-03-08T12:27:13.131Z,3.01
2023-03-08T12:30:34.874Z,2.93
2023-03-08T12:33:40.101Z,2.72
2023-03-08T12:36:45.805Z,2.72
2023-03-08T12:40:00.822Z,2.57
2023-03-08T12:43:12.204Z,2.55
2023-03-08T12:46:15.875Z,2.90
2023-03-08T12:49:29.445Z,2.72
2023-03-08T12:52:35.426Z,2.75
2023-03-08T12:55:39.172Z,2.64
2023-03-08T12:58:52.290Z,2.54
2023-03-08T13:02:23.938Z,2.67
2023-03-08T13:05:35.916Z,2.80
2023-03-08T13:08:52.203Z,2.76
2023-03-08T13:12:20.038Z,2.51
2023-03-08T13:15:27.538Z,2.75
2023-03-08T13:18:31.251Z,2.75
2023-03-08T13:21:48.155Z,2.96
2023-03-08T13:25:00.262Z,2.78
2023-03-08T13:28:08.238Z,2.67
2023-03-08T13:31:18.265Z,3.14
2023-03-08T13:34:30.126Z,2.85
2023-03-08T13:37:35.130Z,2.82
2023-03-08T13:40:42.127Z,2.97
2023-03-08T13:43:45.811Z,3.10
2023-03-08T13:46:52.788Z,3.11
2023-03-08T13:49:58.540Z,2.99
2023-03-08T13:53:09.966Z,3.05
2023-03-08T13:56:25.261Z,3.23
2023-03-08T13:59:29.196Z,3.43
2023-03-08T14:02:33.911Z,3.04
2023-03-08T14:05:45.819Z,3.04
2023-03-08T14:08:52.103Z,3.15
2023-03-08T14:12:01.072Z,2.91
2023-03-08T14:15:07.954Z,3.02
2023-03-08T14:18:23.426Z,2.87
2023-03-08T14:21:29.487Z,2.98
2023-03-08T14:24:37.662Z,2.87
2023-03-08T14:27:45.458Z,2.72
2023-03-08T14:30:49.864Z,2.77
2023-03-08T14:34:03.353Z,2.69
2023-03-08T14:37:19.361Z,2.64
2023-03-08T14:40:30.487Z,2.83
2023-03-08T14:43:34.618Z,2.65
2023-03-08T14:46:38.205Z,2.72
2023-03-08T14:49:41.851Z,2.69
2023-03-08T14:52:49.173Z,2.89
2023-03-08T14:55:54.268Z,2.85
2023-03-08T14:59:03.770Z,2.57
2023-03-08T15:02:13.826Z,2.61
2023-03-08T15:05:28.764Z,2.81
2023-03-08T15:08:33.314Z,2.90
2023-03-08T15:11:38.541Z,3.01
2023-03-08T15:14:42.567Z,2.91
2023-03-08T15:17:46.371Z,2.85
2023-03-08T15:20:52.938Z,2.83
2023-03-08T15:23:58.462Z,2.79
2023-03-08T15:27:03.502Z,3.00
2023-03-08T15:30:15.589Z,2.77
2023-03-08T15:33:19.194Z,2.88
2023-03-08T15:36:22.886Z,2.57
2023-03-08T15:39:26.731Z,2.65
2023-03-08T15:42:31.942Z,2.59
2023-03-08T15:45:35.845Z,2.62
2023-03-08T15:48:39.624Z,2.54
2023-03-08T15:51:44.298Z,2.61
2023-03-08T15:54:50.658Z,2.52
2023-03-08T15:57:55.711Z,2.53
2023-03-08T16:00:59.272Z,2.47
2023-03-08T16:04:02.913Z,2.40
2023-03-08T16:07:06.649Z,2.43
2023-03-08T16:10:14.488Z,2.46
2023-03-08T16:13:21.933Z,2.50
2023-03-08T16:16:35.186Z,2.33
2023-03-08T16:19:48.309Z,2.35
2023-03-08T16:22:51.934Z,2.34
2023-03-08T16:26:14.667Z,2.36
2023-03-08T16:29:21.104Z,2.31
2023-03-08T16:32:24.807Z,2.27
2023-03-08T16:35:28.528Z,2.28
2023-03-08T16:38:32.235Z,2.19
2023-03-08T16:41:36.805Z,2.19
2023-03-08T16:44:42.114Z,2.12
2023-03-08T16:47:46.544Z,2.09
2023-03-08T16:50:55.218Z,2.06
2023-03-08T16:53:58.787Z,2.02
2023-03-08T16:57:17.848Z,2.00
2023-03-08T17:00:27.189Z,1.95
2023-03-08T17:03:30.881Z,1.91
2023-03-08T17:06:35.108Z,1.91
2023-03-08T17:09:40.070Z,1.85
2023-03-08T17:12:43.645Z,1.81
2023-03-08T17:15:48.810Z,1.80
2023-03-08T17:18:53.689Z,1.80
2023-03-08T17:21:57.684Z,1.74
2023-03-08T17:25:01.550Z,1.72
2023-03-08T17:28:06.895Z,1.70
2023-03-08T17:31:16.105Z,1.68
2023-03-08T17:34:21.724Z,1.64
2023-03-08T17:37:25.540Z,1.64
2023-03-08T17:40:29.312Z,1.63
2023-03-08T17:43:33.031Z,1.59
2023-03-08T17:46:38.282Z,1.57
2023-03-08T17:49:41.994Z,1.54
2023-03-08T17:52:45.634Z,1.52
2023-03-08T17:55:49.344Z,1.48
2023-03-08T17:58:53.922Z,1.44
2023-03-08T18:01:58.972Z,1.39
2023-03-08T18:05:02.796Z,1.34
2023-03-08T18:08:06.519Z,1.30
2023-03-08T18:11:10.187Z,1.27
2023-03-08T18:14:16.283Z,1.27
2023-03-08T18:17:22.500Z,1.26
2023-03-08T18:20:26.246Z,1.19
2023-03-08T18:23:31.761Z,1.18
2023-03-08T18:26:35.289Z,1.08
2023-03-08T18:29:38.950Z,1.03
2023-03-08T18:32:43.970Z,1.02
2023-03-08T18:35:58.379Z,1.01
2023-03-08T18:39:04.751Z,1.04
2023-03-08T18:42:08.691Z,1.03
2023-03-08T18:45:22.998Z,0.83
2023-03-08T18:48:28.122Z,0.77
2023-03-08T18:51:33.474Z,0.76
2023-03-08T18:54:38.557Z,0.72
2023-03-08T18:57:42.398Z,0.65
2023-03-08T19:00:46.310Z,0.62
2023-03-08T19:03:51.903Z,0.68
2023-03-08T19:06:55.668Z,0.62
2023-03-08T19:10:01.392Z,0.48
2023-03-08T19:13:05.111Z,0.41
2023-03-08T19:16:19.831Z,0.39
2023-03-08T19:19:25.002Z,0.23
2023-03-08T19:22:28.564Z,0.36
2023-03-08T19:25:33.140Z,0.42
2023-03-08T19:28:36.758Z,0.33
2023-03-08T19:31:46.914Z,0.33
2023-03-08T19:34:52.254Z,0.12
2023-03-08T19:37:55.882Z,0.16
2023-03-08T19:40:59.529Z,0.08
2023-03-08T19:44:06.956Z,0.20
2023-03-08T19:47:11.100Z,0.17
2023-03-08T19:50:16.161Z,0.12
2023-03-08T19:53:19.786Z,0.15
2023-03-08T19:56:24.427Z,0.14
2023-03-08T19:59:28.704Z,0.02
2023-03-08T20:02:32.277Z,0.04
2023-03-08T20:05:42.142Z,0.04
2023-03-08T20:08:45.772Z,0.15
2023-03-08T20:11:50.914Z,0.11
2023-03-08T20:14:54.836Z,0.05
2023-03-08T20:17:58.447Z,0.14
2023-03-08T20:21:04.120Z,0.10
2023-03-08T20:24:08.602Z,0.06
2023-03-08T20:27:12.316Z,0.07
2023-03-08T20:30:16.763Z,0.10
2023-03-08T20:33:20.790Z,0.07
2023-03-08T20:36:26.290Z,0.11
2023-03-08T20:39:30.027Z,0.13
2023-03-08T20:42:34.860Z,0.12
2023-03-08T20:45:41.324Z,0.08
2023-03-08T20:48:46.942Z,0.03
2023-03-08T20:51:52.122Z,-0.02
2023-03-08T20:54:57.085Z,-0.02
2023-03-08T20:58:00.764Z,-0.01
2023-03-08T21:01:12.656Z,-0.06
2023-03-08T21:04:16.960Z,-0.07
2023-03-08T21:07:22.177Z,-0.12
2023-03-08T21:10:25.971Z,-0.16
2023-03-08T21:13:29.673Z,-0.18
2023-03-08T21:16:33.963Z,-0.14
2023-03-08T21:19:38.048Z,-0.18
2023-03-08T21:22:42.991Z,-0.20
2023-03-08T21:25:47.371Z,-0.30
2023-03-08T21:28:51.293Z,-0.28
2023-03-08T21:31:55.373Z,-0.28
2023-03-08T21:34:59.153Z,-0.32
2023-03-08T21:38:04.227Z,-0.35
2023-03-08T21:41:16.302Z,-0.37
2023-03-08T21:44:22.449Z,-0.32
2023-03-08T21:47:26.213Z,-0.35
2023-03-08T21:50:29.972Z,-0.39
2023-03-08T21:53:36.597Z,-0.36
2023-03-08T21:56:40.501Z,-0.38
2023-03-08T21:59:44.194Z,-0.38
2023-03-08T22:02:54.531Z,-0.40
2023-03-08T22:05:59.357Z,-0.40
2023-03-08T22:09:05.043Z,-0.44
2023-03-08T22:12:09.178Z,-0.42
2023-03-08T22:15:24.721Z,-0.44
2023-03-08T22:18:28.547Z,-0.44
2023-03-08T22:21:33.526Z,-0.49
2023-03-08T22:24:38.825Z,-0.51
2023-03-08T22:27:42.512Z,-0.54
2023-03-08T22:30:46.170Z,-0.48
2023-03-08T22:33:50.180Z,-0.50
2023-03-08T22:36:54.666Z,-0.53
2023-03-08T22:40:00.263Z,-0.54
2023-03-08T22:43:03.782Z,-0.54
2023-03-08T22:46:10.037Z,-0.57
2023-03-08T22:49:15.480Z,-0.55
2023-03-08T22:52:21.159Z,-0.53
2023-03-08T22:55:26.122Z,-0.56
2023-03-08T22:58:29.739Z,-0.53
2023-03-08T23:01:33.755Z,-0.48
2023-03-08T23:04:37.439Z,-0.58
2023-03-08T23:07:41.129Z,-0.57
2023-03-08T23:10:46.110Z,-0.56
2023-03-08T23:13:49.738Z,-0.55
2023-03-08T23:16:53.503Z,-0.55
2023-03-08T23:19:58.343Z,-0.56
2023-03-08T23:23:01.922Z,-0.58
2023-03-08T23:26:10.476Z,-0.52
2023-03-08T23:29:16.080Z,-0.55
2023-03-08T23:32:19.762Z,-0.54
2023-03-08T23:35:23.567Z,-0.57
2023-03-08T23:38:27.107Z,-0.53
2023-03-08T23:41:33.084Z,-0.54
2023-03-08T23:44:36.661Z,-0.56
2023-03-08T23:47:40.712Z,-0.54
2023-03-08T23:50:44.271Z,-0.57
2023-03-08T23:53:52.271Z,-0.57
2023-03-08T23:56:57.239Z,-0.61
